Time;durP1;ratioP1;P1;durP2;ratioP2;P2;SDS_P1;SDS_P2;PMS_P1;PMS_P2;Temp;Humidity;BMP_temperature;BMP_pressure;BME280_temperature;BME280_humidity;BME280_pressure;Samples;Min_cycle;Max_cycle;Signal;HPM_P1;HPM_P2
2023/10/11 00:01:42;;;;;;;19.65;3.70;;;;;;;;;;5032834;28;20975;-75
2023/10/11 00:04:23;;;;;;;21.65;4.50;;;;;;;;;;5033771;28;20419;-75
2023/10/11 00:06:57;;;;;;;20.35;4.40;;;;;;;;;;5032485;28;20847;-76
2023/10/11 00:09:38;;;;;;;21.00;4.10;;;;;;;;;;5046995;28;20415;-74
2023/10/11 00:12:05;;;;;;;19.40;4.10;;;;;;;;;;5031114;28;20445;-73
2023/10/11 00:14:31;;;;;;;19.70;3.70;;;;;;;;;;5034876;28;20411;-74
2023/10/11 00:16:58;;;;;;;21.13;5.13;;;;;;;;;;5031616;28;20422;-74
2023/10/11 00:19:28;;;;;;;19.90;4.18;;;;;;;;;;5030913;28;20800;-74
2023/10/11 00:21:57;;;;;;;18.23;4.25;;;;;;;;;;5030251;28;20460;-74
2023/10/11 00:24:23;;;;;;;20.45;4.55;;;;;;;;;;5030502;28;20429;-75
2023/10/11 00:26:50;;;;;;;17.30;3.73;;;;;;;;;;5033195;28;20407;-74
2023/10/11 00:29:17;;;;;;;21.90;4.20;;;;;;;;;;5034349;28;20500;-74
2023/10/11 00:31:45;;;;;;;24.80;4.30;;;;;;;;;;5029398;28;20419;-72
2023/10/11 00:34:12;;;;;;;21.60;4.20;;;;;;;;;;5033607;28;20907;-73
2023/10/11 00:36:42;;;;;;;21.08;4.38;;;;;;;;;;5045731;28;20403;-74
2023/10/11 00:39:16;;;;;;;19.03;4.07;;;;;;;;;;5018288;28;20413;-74
2023/10/11 00:41:47;;;;;;;19.15;4.00;;;;;;;;;;5029146;28;20415;-74
2023/10/11 00:44:19;;;;;;;19.58;4.15;;;;;;;;;;5033465;28;20417;-74
2023/10/11 00:47:00;;;;;;;21.80;4.07;;;;;;;;;;5037757;28;20423;-74
2023/10/11 00:49:35;;;;;;;18.80;4.30;;;;;;;;;;5020501;28;20934;-74
2023/10/11 00:52:06;;;;;;;20.20;4.77;;;;;;;;;;5030109;28;20403;-74
2023/10/11 00:54:34;;;;;;;21.65;4.10;;;;;;;;;;5044128;28;20755;-76
2023/10/11 00:57:01;;;;;;;18.60;4.13;;;;;;;;;;5031543;28;20439;-75
2023/10/11 00:59:28;;;;;;;20.27;4.40;;;;;;;;;;5029978;28;20497;-76
2023/10/11 01:01:55;;;;;;;19.30;4.40;;;;;;;;;;5018770;28;20422;-77
2023/10/11 01:04:25;;;;;;;22.02;4.68;;;;;;;;;;5030135;28;20438;-76
2023/10/11 01:06:52;;;;;;;19.77;4.72;;;;;;;;;;5030589;28;20421;-79
2023/10/11 01:09:28;;;;;;;18.35;3.80;;;;;;;;;;5050155;28;20420;-78
2023/10/11 01:11:55;;;;;;;18.73;3.83;;;;;;;;;;5043950;28;20418;-77
2023/10/11 01:14:25;;;;;;;31.35;4.90;;;;;;;;;;5041503;28;20845;-79
2023/10/11 01:16:52;;;;;;;21.48;4.60;;;;;;;;;;5043780;28;20451;-79
2023/10/11 01:19:19;;;;;;;19.42;4.70;;;;;;;;;;5050939;28;20421;-77
2023/10/11 01:21:51;;;;;;;19.50;3.90;;;;;;;;;;5031052;28;20437;-74
2023/10/11 01:24:18;;;;;;;19.30;4.40;;;;;;;;;;5030036;28;20425;-76
2023/10/11 01:26:45;;;;;;;20.97;5.00;;;;;;;;;;5029901;28;20465;-76
2023/10/11 01:29:12;;;;;;;19.60;3.90;;;;;;;;;;5030849;28;20418;-75
2023/10/11 01:31:38;;;;;;;18.47;4.30;;;;;;;;;;5023448;28;20779;-75
2023/10/11 01:34:05;;;;;;;19.02;3.80;;;;;;;;;;5047125;28;20410;-74
2023/10/11 01:36:34;;;;;;;21.63;5.47;;;;;;;;;;5032234;28;20427;-76
2023/10/11 01:39:07;;;;;;;18.85;4.05;;;;;;;;;;5039805;28;20481;-76
2023/10/11 01:41:36;;;;;;;20.13;4.40;;;;;;;;;;5016342;28;20908;-75
2023/10/11 01:44:03;;;;;;;20.48;5.28;;;;;;;;;;5035527;28;20419;-74
2023/10/11 01:46:35;;;;;;;20.85;5.15;;;;;;;;;;5033886;28;20529;-75
2023/10/11 01:49:02;;;;;;;20.25;4.85;;;;;;;;;;5027556;28;20531;-76
2023/10/11 01:51:29;;;;;;;20.33;4.78;;;;;;;;;;5037693;28;20542;-75
2023/10/11 01:53:57;;;;;;;21.73;4.40;;;;;;;;;;5038822;28;20420;-75
2023/10/11 01:56:25;;;;;;;21.93;4.90;;;;;;;;;;5035084;28;20487;-74
2023/10/11 01:58:53;;;;;;;24.50;4.88;;;;;;;;;;5032197;28;20403;-76
2023/10/11 02:01:23;;;;;;;18.90;4.20;;;;;;;;;;5033413;28;21030;-77
2023/10/11 02:03:54;;;;;;;23.17;4.68;;;;;;;;;;5029415;28;20435;-76
2023/10/11 02:06:21;;;;;;;21.50;4.77;;;;;;;;;;5033668;28;20471;-76
2023/10/11 02:08:48;;;;;;;21.05;5.70;;;;;;;;;;5034739;28;20438;-74
2023/10/11 02:11:15;;;;;;;19.70;4.50;;;;;;;;;;5031092;28;20432;-74
2023/10/11 02:13:43;;;;;;;18.52;4.15;;;;;;;;;;5039092;28;20521;-73
2023/10/11 02:16:11;;;;;;;20.70;4.40;;;;;;;;;;5032661;28;21190;-73
2023/10/11 02:18:39;;;;;;;20.10;4.65;;;;;;;;;;5033469;28;20411;-75
2023/10/11 02:21:06;;;;;;;20.38;4.50;;;;;;;;;;5032342;28;20415;-75
2023/10/11 02:23:42;;;;;;;19.33;4.20;;;;;;;;;;5031866;28;20422;-75
2023/10/11 02:26:16;;;;;;;20.80;4.65;;;;;;;;;;5034458;28;20415;-76
2023/10/11 02:28:45;;;;;;;20.10;4.17;;;;;;;;;;5032837;28;20413;-73
2023/10/11 02:31:19;;;;;;;21.65;4.68;;;;;;;;;;5039518;28;20460;-75
2023/10/11 02:33:46;;;;;;;21.45;5.47;;;;;;;;;;5035852;28;20903;-76
2023/10/11 02:36:19;;;;;;;20.05;4.60;;;;;;;;;;5033085;28;20411;-75
2023/10/11 02:38:50;;;;;;;20.40;4.28;;;;;;;;;;5040426;28;20957;-75
2023/10/11 02:41:24;;;;;;;18.60;4.07;;;;;;;;;;5030040;28;20419;-75
2023/10/11 02:43:53;;;;;;;22.40;4.70;;;;;;;;;;5042343;28;20411;-75
2023/10/11 02:46:23;;;;;;;21.03;5.13;;;;;;;;;;5030731;28;20526;-76
2023/10/11 02:48:54;;;;;;;21.23;5.00;;;;;;;;;;5031113;28;20760;-75
2023/10/11 02:51:24;;;;;;;21.05;4.72;;;;;;;;;;5031637;28;20426;-74
2023/10/11 02:53:54;;;;;;;18.58;4.30;;;;;;;;;;5034132;28;20487;-76
2023/10/11 02:56:24;;;;;;;20.00;4.88;;;;;;;;;;5033023;28;20411;-76
2023/10/11 02:58:52;;;;;;;20.77;4.90;;;;;;;;;;5033624;28;20414;-74
2023/10/11 03:01:22;;;;;;;19.83;5.05;;;;;;;;;;5032793;28;20419;-75
2023/10/11 03:03:52;;;;;;;24.60;5.40;;;;;;;;;;5031911;28;20418;-74
2023/10/11 03:06:22;;;;;;;20.85;4.80;;;;;;;;;;5032578;28;20434;-75
2023/10/11 03:08:51;;;;;;;21.67;5.15;;;;;;;;;;5031020;28;20411;-73
2023/10/11 03:11:18;;;;;;;19.92;4.93;;;;;;;;;;5025150;28;20419;-74
2023/10/11 03:13:44;;;;;;;19.38;4.50;;;;;;;;;;5036138;28;20411;-76
2023/10/11 03:16:17;;;;;;;19.98;5.10;;;;;;;;;;5032092;28;20430;-75
2023/10/11 03:18:46;;;;;;;21.00;5.13;;;;;;;;;;5032450;28;20423;-73
2023/10/11 03:21:20;;;;;;;19.40;5.22;;;;;;;;;;5033037;28;20406;-76
2023/10/11 03:23:47;;;;;;;21.45;5.88;;;;;;;;;;5047861;28;20414;-76
2023/10/11 03:26:22;;;;;;;20.60;4.80;;;;;;;;;;5032629;28;20427;-76
2023/10/11 03:28:58;;;;;;;21.40;5.25;;;;;;;;;;5014642;28;20418;-75
2023/10/11 03:31:34;;;;;;;20.58;5.30;;;;;;;;;;5030145;28;20403;-75
2023/10/11 03:34:11;;;;;;;22.80;5.30;;;;;;;;;;5032319;28;20541;-75
2023/10/11 03:36:51;;;;;;;23.10;5.15;;;;;;;;;;5032018;28;20472;-75
2023/10/11 03:39:39;;;;;;;20.37;5.20;;;;;;;;;;5018690;28;20411;-76
2023/10/11 03:42:13;;;;;;;19.58;5.03;;;;;;;;;;5032187;28;20497;-76
2023/10/11 03:44:40;;;;;;;19.55;4.40;;;;;;;;;;5036536;28;20469;-75
2023/10/11 03:47:08;;;;;;;21.52;4.80;;;;;;;;;;5032599;28;20415;-76
2023/10/11 03:52:18;;;;;;;21.45;4.53;;;;;;;;;;5031657;28;20403;-75
2023/10/11 03:54:46;;;;;;;22.42;5.28;;;;;;;;;;5031401;28;20464;-74
2023/10/11 03:57:12;;;;;;;23.75;5.45;;;;;;;;;;5025116;28;20420;-75
2023/10/11 03:59:39;;;;;;;24.20;5.10;;;;;;;;;;5039235;28;20906;-76
2023/10/11 04:02:12;;;;;;;25.50;5.40;;;;;;;;;;5042294;28;20423;-75
2023/10/11 04:04:42;;;;;;;21.35;5.03;;;;;;;;;;5035420;28;20417;-75
2023/10/11 04:07:12;;;;;;;19.80;4.88;;;;;;;;;;5031780;28;20510;-75
2023/10/11 04:09:39;;;;;;;20.77;4.80;;;;;;;;;;5016971;28;20417;-77
2023/10/11 04:12:09;;;;;;;22.90;5.10;;;;;;;;;;5031911;28;20496;-76
2023/10/11 04:14:40;;;;;;;18.97;4.50;;;;;;;;;;5033993;28;20464;-74
2023/10/11 04:17:07;;;;;;;20.73;5.57;;;;;;;;;;5028098;28;20442;-76
2023/10/11 04:19:35;;;;;;;19.95;5.57;;;;;;;;;;5029198;28;20414;-75
2023/10/11 04:22:12;;;;;;;20.45;5.22;;;;;;;;;;5032352;28;20419;-74
2023/10/11 04:24:40;;;;;;;22.37;5.23;;;;;;;;;;5036236;28;20410;-77
2023/10/11 04:29:50;;;;;;;20.13;4.82;;;;;;;;;;5031440;28;20457;-73
2023/10/11 04:33:01;;;;;;;21.50;4.97;;;;;;;;;;5031929;28;20411;-74
2023/10/11 04:35:25;;;;;;;21.48;4.70;;;;;;;;;;5024156;28;20442;-75
2023/10/11 04:37:55;;;;;;;20.27;4.50;;;;;;;;;;5014593;28;20498;-75
2023/10/11 04:40:24;;;;;;;20.83;5.00;;;;;;;;;;5021450;28;20416;-76
2023/10/11 04:43:04;;;;;;;21.50;5.38;;;;;;;;;;5029680;28;21216;-76
2023/10/11 04:45:32;;;;;;;21.50;5.00;;;;;;;;;;5028947;28;20440;-75
2023/10/11 04:48:29;;;;;;;22.50;5.10;;;;;;;;;;5027951;28;20415;-75
2023/10/11 04:51:04;;;;;;;22.80;5.25;;;;;;;;;;5028535;28;20545;-77
2023/10/11 04:53:54;;;;;;;21.38;5.25;;;;;;;;;;5030217;28;20411;-75
2023/10/11 04:59:07;;;;;;;22.48;6.07;;;;;;;;;;5047032;28;20418;-76
2023/10/11 05:02:08;;;;;;;20.80;5.30;;;;;;;;;;5030727;28;20407;-74
2023/10/11 05:04:32;;;;;;;22.95;5.50;;;;;;;;;;5030840;28;20465;-73
2023/10/11 05:07:09;;;;;;;25.55;6.13;;;;;;;;;;5030296;28;20410;-76
2023/10/11 05:09:38;;;;;;;20.88;5.03;;;;;;;;;;5025759;28;20414;-75
2023/10/11 05:19:45;;;;;;;24.70;5.10;;;;;;;;;;5030144;28;20493;-75
2023/10/11 05:22:29;;;;;;;22.20;6.00;;;;;;;;;;5031899;28;20422;-76
2023/10/11 05:51:39;;;;;;;22.90;5.00;;;;;;;;;;5030357;28;20407;-76
2023/10/11 05:54:11;;;;;;;19.90;5.30;;;;;;;;;;5032372;28;20443;-75
2023/10/11 05:56:45;;;;;;;23.83;4.80;;;;;;;;;;5021073;28;20485;-73
2023/10/11 05:59:14;;;;;;;21.88;4.30;;;;;;;;;;5005567;28;20437;-73
2023/10/11 06:01:44;;;;;;;19.90;4.53;;;;;;;;;;5030183;28;20487;-76
2023/10/11 06:04:13;;;;;;;20.23;4.68;;;;;;;;;;5027687;28;20429;-75
2023/10/11 06:06:45;;;;;;;21.70;5.03;;;;;;;;;;5030135;28;20779;-74
2023/10/11 06:09:18;;;;;;;20.10;4.35;;;;;;;;;;5004368;28;20407;-73
2023/10/11 06:11:50;;;;;;;21.25;5.47;;;;;;;;;;5043422;28;20451;-73
2023/10/11 06:14:17;;;;;;;26.55;5.40;;;;;;;;;;5031373;28;20402;-72
2023/10/11 06:16:49;;;;;;;21.10;4.50;;;;;;;;;;5018124;28;20402;-74
2023/10/11 06:19:16;;;;;;;22.13;5.00;;;;;;;;;;5031533;28;20491;-72
2023/10/11 06:21:56;;;;;;;21.08;5.15;;;;;;;;;;5028370;28;20748;-75
2023/10/11 06:24:23;;;;;;;19.70;4.30;;;;;;;;;;5029815;28;20407;-75
2023/10/11 06:26:52;;;;;;;19.40;4.45;;;;;;;;;;5035338;28;20427;-72
2023/10/11 06:29:23;;;;;;;19.42;4.68;;;;;;;;;;5032347;28;20780;-73
2023/10/11 06:31:50;;;;;;;21.65;4.15;;;;;;;;;;5034015;28;20413;-72
2023/10/11 06:34:26;;;;;;;22.25;4.85;;;;;;;;;;5036032;28;20436;-72
2023/10/11 06:36:53;;;;;;;24.35;4.18;;;;;;;;;;5039052;28;20425;-73
2023/10/11 06:42:14;;;;;;;19.45;4.00;;;;;;;;;;5031416;28;20425;-73
2023/10/11 06:44:43;;;;;;;20.97;5.30;;;;;;;;;;5029748;28;20423;-72
2023/10/11 06:47:12;;;;;;;22.27;4.63;;;;;;;;;;5032131;28;20790;-74
2023/10/11 06:49:40;;;;;;;21.98;4.22;;;;;;;;;;5016997;28;20720;-74
2023/10/11 06:52:07;;;;;;;20.67;4.70;;;;;;;;;;5032092;28;20779;-75
2023/10/11 06:54:34;;;;;;;21.02;4.50;;;;;;;;;;5031298;28;21239;-74
2023/10/11 06:57:01;;;;;;;22.23;4.22;;;;;;;;;;5048440;28;20457;-74
2023/10/11 06:59:29;;;;;;;25.15;4.35;;;;;;;;;;5039298;28;20430;-75
2023/10/11 07:01:59;;;;;;;19.88;3.90;;;;;;;;;;5032298;28;20986;-74
2023/10/11 07:04:36;;;;;;;22.90;4.70;;;;;;;;;;5033349;28;20391;-74
2023/10/11 07:07:07;;;;;;;21.77;4.40;;;;;;;;;;5033384;28;20833;-75
2023/10/11 07:09:39;;;;;;;20.23;4.13;;;;;;;;;;5031618;28;20856;-74
2023/10/11 07:12:28;;;;;;;20.23;4.65;;;;;;;;;;5029127;28;20420;-74
2023/10/11 07:14:57;;;;;;;20.63;4.20;;;;;;;;;;5033441;28;20418;-74
2023/10/11 07:17:25;;;;;;;20.65;4.40;;;;;;;;;;5021494;28;20469;-74
2023/10/11 07:19:52;;;;;;;19.80;3.90;;;;;;;;;;5031061;28;20411;-75
2023/10/11 07:22:18;;;;;;;21.75;4.30;;;;;;;;;;5032733;28;20417;-74
2023/10/11 07:24:45;;;;;;;20.35;4.10;;;;;;;;;;5032375;28;20477;-74
2023/10/11 07:27:13;;;;;;;23.02;4.28;;;;;;;;;;5013518;28;20425;-74
2023/10/11 07:29:45;;;;;;;20.63;4.60;;;;;;;;;;5036436;28;20896;-72
2023/10/11 07:32:18;;;;;;;22.60;4.57;;;;;;;;;;5029849;28;20411;-74
2023/10/11 07:34:48;;;;;;;22.00;4.07;;;;;;;;;;5022520;28;20517;-73
2023/10/11 07:37:18;;;;;;;22.65;4.22;;;;;;;;;;5029034;28;20448;-75
2023/10/11 07:39:47;;;;;;;20.65;3.95;;;;;;;;;;5032510;28;20407;-75
2023/10/11 07:42:19;;;;;;;20.83;3.92;;;;;;;;;;5029744;28;20403;-74
2023/10/11 07:44:50;;;;;;;18.63;4.38;;;;;;;;;;5033604;28;20884;-74
2023/10/11 07:47:25;;;;;;;22.25;4.15;;;;;;;;;;5030793;28;20415;-75
2023/10/11 07:49:54;;;;;;;24.13;4.60;;;;;;;;;;5030732;28;20407;-73
2023/10/11 07:52:22;;;;;;;24.15;4.15;;;;;;;;;;5035325;28;20431;-75
2023/10/11 07:54:51;;;;;;;19.20;4.50;;;;;;;;;;5030451;28;20419;-73
2023/10/11 07:57:19;;;;;;;20.30;4.85;;;;;;;;;;5030133;28;20954;-74
2023/10/11 07:59:51;;;;;;;20.63;4.63;;;;;;;;;;5029781;28;20427;-75
2023/10/11 08:02:31;;;;;;;20.73;3.80;;;;;;;;;;5030300;28;20403;-73
2023/10/11 08:04:58;;;;;;;22.63;4.40;;;;;;;;;;5031708;28;20497;-74
2023/10/11 08:07:24;;;;;;;21.10;4.00;;;;;;;;;;5031047;28;20434;-73
2023/10/11 08:09:55;;;;;;;19.97;4.00;;;;;;;;;;5029330;28;20418;-74
2023/10/11 08:12:25;;;;;;;23.15;4.80;;;;;;;;;;5047193;28;20403;-74
2023/10/11 08:14:53;;;;;;;21.15;3.97;;;;;;;;;;5027146;28;20873;-74
2023/10/11 08:17:29;;;;;;;18.80;3.90;;;;;;;;;;5026543;28;20461;-74
2023/10/11 08:19:57;;;;;;;18.83;3.70;;;;;;;;;;5028050;28;20406;-75
2023/10/11 08:22:23;;;;;;;21.05;3.83;;;;;;;;;;5027222;28;20416;-75
2023/10/11 08:24:51;;;;;;;19.97;4.30;;;;;;;;;;5030666;28;20407;-74
2023/10/11 08:27:27;;;;;;;22.02;4.40;;;;;;;;;;5027627;28;20440;-73
2023/10/11 08:32:42;;;;;;;22.00;4.53;;;;;;;;;;5030984;28;20411;-73
2023/10/11 08:35:26;;;;;;;19.27;3.80;;;;;;;;;;5044837;28;20410;-74
2023/10/11 08:37:53;;;;;;;23.30;3.85;;;;;;;;;;5028627;28;20403;-71
2023/10/11 08:40:22;;;;;;;18.45;4.22;;;;;;;;;;5031383;28;20418;-75
2023/10/11 08:42:50;;;;;;;19.33;3.67;;;;;;;;;;5017458;28;20468;-75
2023/10/11 08:45:21;;;;;;;19.35;4.50;;;;;;;;;;5031692;28;20891;-74
2023/10/11 08:47:48;;;;;;;18.05;3.83;;;;;;;;;;5029431;28;20790;-76
2023/10/11 08:50:18;;;;;;;20.50;3.70;;;;;;;;;;5035571;28;20533;-74
2023/10/11 08:52:45;;;;;;;18.45;3.90;;;;;;;;;;5027389;28;20445;-73
2023/10/11 08:55:12;;;;;;;18.13;3.72;;;;;;;;;;5039987;28;20402;-74
2023/10/11 08:57:39;;;;;;;17.65;2.90;;;;;;;;;;5026259;28;20420;-75
2023/10/11 09:00:17;;;;;;;21.92;3.72;;;;;;;;;;5038590;28;20419;-72
2023/10/11 09:02:48;;;;;;;17.90;3.50;;;;;;;;;;5013025;28;20525;-74
2023/10/11 09:05:28;;;;;;;18.05;3.58;;;;;;;;;;5030208;28;20434;-75
2023/10/11 09:07:55;;;;;;;20.27;4.28;;;;;;;;;;5010209;28;20478;-76
2023/10/11 09:10:25;;;;;;;21.65;3.78;;;;;;;;;;5030085;28;20411;-76
2023/10/11 09:12:56;;;;;;;20.65;3.75;;;;;;;;;;5027588;28;20601;-75
2023/10/11 09:15:23;;;;;;;27.40;4.23;;;;;;;;;;5028722;28;20589;-73
2023/10/11 09:18:08;;;;;;;20.73;2.92;;;;;;;;;;5031106;28;20569;-76
2023/10/11 09:20:40;;;;;;;19.50;3.40;;;;;;;;;;5003127;28;20897;-75
2023/10/11 09:23:08;;;;;;;19.40;3.22;;;;;;;;;;5029985;28;20418;-75
2023/10/11 09:25:41;;;;;;;19.42;3.70;;;;;;;;;;5029334;28;20466;-75
2023/10/11 09:28:15;;;;;;;23.77;3.97;;;;;;;;;;5017229;28;20418;-74
2023/10/11 09:30:44;;;;;;;20.00;3.40;;;;;;;;;;5025760;28;20442;-73
2023/10/11 09:33:18;;;;;;;17.20;2.80;;;;;;;;;;5030549;28;20481;-74
2023/10/11 09:35:49;;;;;;;26.20;3.70;;;;;;;;;;5031632;28;20443;-75
2023/10/11 09:38:19;;;;;;;19.52;3.63;;;;;;;;;;5045537;28;20415;-75
2023/10/11 09:40:47;;;;;;;21.17;3.17;;;;;;;;;;5033274;28;20410;-74
2023/10/11 09:43:16;;;;;;;21.60;3.38;;;;;;;;;;5029717;28;20407;-75
2023/10/11 09:45:53;;;;;;;17.48;3.20;;;;;;;;;;5044079;28;20416;-74
2023/10/11 09:48:22;;;;;;;19.70;3.20;;;;;;;;;;5043917;28;20430;-74
2023/10/11 09:50:57;;;;;;;26.05;3.65;;;;;;;;;;5030536;28;20411;-73
2023/10/11 09:53:26;;;;;;;19.15;3.55;;;;;;;;;;5030410;28;20903;-73
2023/10/11 09:55:58;;;;;;;19.70;3.20;;;;;;;;;;5034870;28;20414;-75
2023/10/11 09:58:36;;;;;;;20.65;3.50;;;;;;;;;;5034197;28;20399;-74
2023/10/11 10:01:10;;;;;;;19.08;3.42;;;;;;;;;;5034548;28;20411;-73
2023/10/11 10:03:38;;;;;;;17.57;2.90;;;;;;;;;;5033839;28;20901;-72
2023/10/11 10:06:07;;;;;;;20.40;3.58;;;;;;;;;;5033228;28;20698;-74
2023/10/11 10:08:34;;;;;;;20.13;4.07;;;;;;;;;;5045912;28;20422;-73
2023/10/11 10:11:04;;;;;;;17.58;3.00;;;;;;;;;;5040502;28;20414;-72
2023/10/11 10:13:46;;;;;;;20.95;3.30;;;;;;;;;;5032348;28;20528;-74
2023/10/11 10:16:15;;;;;;;22.88;3.95;;;;;;;;;;5048231;28;20410;-74
2023/10/11 10:18:47;;;;;;;19.65;3.33;;;;;;;;;;5046384;28;20403;-75
2023/10/11 10:21:17;;;;;;;20.25;3.75;;;;;;;;;;5030766;28;20409;-74
2023/10/11 10:23:44;;;;;;;19.67;3.25;;;;;;;;;;5014513;28;20913;-73
2023/10/11 10:26:38;;;;;;;19.73;3.20;;;;;;;;;;5032160;28;20408;-74
2023/10/11 10:29:11;;;;;;;18.05;2.80;;;;;;;;;;5031388;28;20419;-74
2023/10/11 10:31:57;;;;;;;17.98;2.70;;;;;;;;;;5020211;28;20444;-76
2023/10/11 10:34:24;;;;;;;15.75;2.40;;;;;;;;;;5035377;28;20770;-74
2023/10/11 10:36:53;;;;;;;17.45;2.60;;;;;;;;;;5038146;28;20438;-73
2023/10/11 10:42:06;;;;;;;17.70;2.90;;;;;;;;;;5046789;28;20425;-74
2023/10/11 10:44:44;;;;;;;21.38;3.28;;;;;;;;;;5022450;28;20414;-73
2023/10/11 10:47:13;;;;;;;18.17;2.80;;;;;;;;;;5022867;28;20430;-74
2023/10/11 10:49:41;;;;;;;17.23;2.92;;;;;;;;;;5039383;28;20422;-75
2023/10/11 10:52:15;;;;;;;17.98;3.67;;;;;;;;;;5034274;28;20417;-75
2023/10/11 10:54:52;;;;;;;17.40;2.80;;;;;;;;;;5039031;28;20461;-75
2023/10/11 10:57:22;;;;;;;20.27;3.00;;;;;;;;;;5048732;28;20401;-74
2023/10/11 10:59:49;;;;;;;19.88;2.60;;;;;;;;;;5034435;28;20498;-76
2023/10/11 11:02:19;;;;;;;17.45;2.95;;;;;;;;;;5034088;28;20411;-74
2023/10/11 11:04:46;;;;;;;27.90;3.30;;;;;;;;;;5030141;28;20424;-75
2023/10/11 11:07:24;;;;;;;17.00;2.83;;;;;;;;;;5031663;28;20844;-73
2023/10/11 11:09:54;;;;;;;18.35;3.35;;;;;;;;;;5018457;28;20424;-76
2023/10/11 11:12:28;;;;;;;16.70;3.25;;;;;;;;;;5020171;28;20780;-76
2023/10/11 11:14:56;;;;;;;25.83;3.20;;;;;;;;;;5018545;28;20453;-75
2023/10/11 11:17:24;;;;;;;19.02;3.20;;;;;;;;;;5031081;28;20523;-74
2023/10/11 11:20:51;;;;;;;16.83;2.80;;;;;;;;;;5028562;28;20548;-74
2023/10/11 11:22:57;;;;;;;16.67;2.60;;;;;;;;;;5027811;28;20450;-74
2023/10/11 11:25:27;;;;;;;19.17;2.80;;;;;;;;;;5040715;28;20441;-74
2023/10/11 11:28:01;;;;;;;17.73;2.80;;;;;;;;;;5032069;28;20422;-77
2023/10/11 11:30:33;;;;;;;18.98;2.88;;;;;;;;;;5036117;28;20402;-74
2023/10/11 11:33:08;;;;;;;18.17;3.30;;;;;;;;;;5033005;28;20403;-74
2023/10/11 11:35:43;;;;;;;20.38;3.10;;;;;;;;;;5030738;28;20845;-73
2023/10/11 11:38:20;;;;;;;18.77;3.10;;;;;;;;;;5024525;28;20423;-75
2023/10/11 11:40:48;;;;;;;20.45;2.95;;;;;;;;;;5017957;28;20417;-73
2023/10/11 11:43:19;;;;;;;19.67;2.70;;;;;;;;;;5040460;28;20772;-73
2023/10/11 11:45:47;;;;;;;20.30;2.80;;;;;;;;;;5037027;28;20746;-73
2023/10/11 11:48:14;;;;;;;18.77;3.33;;;;;;;;;;5035375;28;20895;-74
2023/10/11 11:50:41;;;;;;;21.40;2.65;;;;;;;;;;5033044;28;20412;-72
2023/10/11 11:53:08;;;;;;;25.48;3.17;;;;;;;;;;5039707;28;20429;-74
2023/10/11 11:55:39;;;;;;;22.63;3.05;;;;;;;;;;5036874;28;20940;-74
2023/10/11 11:58:10;;;;;;;21.13;3.25;;;;;;;;;;5048654;28;20522;-73
2023/10/11 12:00:40;;;;;;;16.40;2.60;;;;;;;;;;5034019;28;20453;-73
2023/10/11 12:03:08;;;;;;;20.50;3.30;;;;;;;;;;5032945;28;20438;-73
2023/10/11 12:05:41;;;;;;;20.33;2.97;;;;;;;;;;5033933;28;20842;-73
2023/10/11 12:08:09;;;;;;;30.27;3.55;;;;;;;;;;5030637;28;20475;-74
2023/10/11 12:10:36;;;;;;;20.90;3.10;;;;;;;;;;5040367;28;20414;-75
2023/10/11 12:13:07;;;;;;;19.70;3.40;;;;;;;;;;5038230;28;20768;-75
2023/10/11 12:15:34;;;;;;;20.60;3.20;;;;;;;;;;5039859;28;20518;-75
2023/10/11 12:18:05;;;;;;;26.90;4.78;;;;;;;;;;5038993;28;20443;-73
2023/10/11 12:20:36;;;;;;;20.30;3.60;;;;;;;;;;5053530;28;20415;-75
2023/10/11 12:23:08;;;;;;;21.23;3.53;;;;;;;;;;5037225;28;20406;-74
2023/10/11 12:25:37;;;;;;;20.95;3.40;;;;;;;;;;5034425;28;20403;-75
2023/10/11 12:28:05;;;;;;;21.98;3.17;;;;;;;;;;5036413;28;20418;-76
2023/10/11 12:30:33;;;;;;;20.65;3.30;;;;;;;;;;5035283;28;20492;-74
2023/10/11 12:33:06;;;;;;;21.70;3.53;;;;;;;;;;5033994;28;20410;-76
2023/10/11 12:35:35;;;;;;;20.83;3.30;;;;;;;;;;5035365;28;20411;-74
2023/10/11 12:38:02;;;;;;;25.25;3.70;;;;;;;;;;5039907;28;20422;-74
2023/10/11 12:40:29;;;;;;;17.10;2.80;;;;;;;;;;5038857;28;20429;-74
2023/10/11 12:42:57;;;;;;;22.02;3.40;;;;;;;;;;5033891;28;20409;-74
2023/10/11 12:45:25;;;;;;;24.55;3.25;;;;;;;;;;5031554;28;20438;-74
2023/10/11 12:47:52;;;;;;;21.53;3.50;;;;;;;;;;5030650;28;20425;-73
2023/10/11 12:50:20;;;;;;;25.27;2.95;;;;;;;;;;5029889;28;20402;-72
2023/10/11 12:52:52;;;;;;;25.77;3.03;;;;;;;;;;5018016;28;20481;-72
2023/10/11 12:55:20;;;;;;;18.92;3.20;;;;;;;;;;5028628;28;20495;-72
2023/10/11 12:57:48;;;;;;;23.27;4.18;;;;;;;;;;5046995;28;20418;-73
2023/10/11 13:00:39;;;;;;;18.33;3.17;;;;;;;;;;5030751;28;21277;-73
2023/10/11 13:03:18;;;;;;;23.42;3.45;;;;;;;;;;5030570;28;20411;-71
2023/10/11 13:05:45;;;;;;;20.40;3.80;;;;;;;;;;5028711;28;20411;-73
2023/10/11 13:08:12;;;;;;;22.15;3.40;;;;;;;;;;5034468;28;20415;-73
2023/10/11 13:10:45;;;;;;;19.40;3.20;;;;;;;;;;5029774;28;20450;-73
2023/10/11 13:13:14;;;;;;;19.65;3.42;;;;;;;;;;5030484;28;20411;-73
2023/10/11 13:15:55;;;;;;;23.25;3.70;;;;;;;;;;5030534;28;20765;-74
2023/10/11 13:18:22;;;;;;;25.77;3.55;;;;;;;;;;5029975;28;20403;-74
2023/10/11 13:20:48;;;;;;;19.23;3.20;;;;;;;;;;5029851;28;20431;-72
2023/10/11 13:23:15;;;;;;;22.10;3.60;;;;;;;;;;5037192;28;20488;-74
2023/10/11 13:25:44;;;;;;;19.70;3.17;;;;;;;;;;5028693;28;20438;-74
2023/10/11 13:28:18;;;;;;;19.02;3.20;;;;;;;;;;5033462;28;20427;-75
2023/10/11 13:30:47;;;;;;;23.80;3.07;;;;;;;;;;5035462;28;20450;-75
2023/10/11 13:33:15;;;;;;;24.27;3.40;;;;;;;;;;5041009;28;20472;-75
2023/10/11 13:35:42;;;;;;;21.27;4.05;;;;;;;;;;5032751;28;20501;-74
2023/10/11 13:38:12;;;;;;;19.88;3.30;;;;;;;;;;5033668;28;20407;-72
2023/10/11 13:40:39;;;;;;;18.92;3.42;;;;;;;;;;5035643;28;20407;-75
2023/10/11 13:43:05;;;;;;;20.88;3.53;;;;;;;;;;5036759;28;20454;-73
2023/10/11 13:45:32;;;;;;;31.70;4.78;;;;;;;;;;5033514;28;20761;-75
2023/10/11 13:48:04;;;;;;;23.60;3.77;;;;;;;;;;5035025;28;20418;-75
2023/10/11 13:50:37;;;;;;;24.83;4.13;;;;;;;;;;5032464;28;20430;-74
2023/10/11 13:53:04;;;;;;;19.00;3.50;;;;;;;;;;5033806;28;20435;-74
2023/10/11 13:55:39;;;;;;;18.92;2.97;;;;;;;;;;5034601;28;20935;-76
2023/10/11 13:58:06;;;;;;;21.38;3.70;;;;;;;;;;5032701;28;20429;-74
2023/10/11 14:01:00;;;;;;;21.80;2.90;;;;;;;;;;5032894;28;20410;-76
2023/10/11 14:08:44;;;;;;;19.75;3.28;;;;;;;;;;5032366;28;20462;-74
2023/10/11 14:11:14;;;;;;;23.23;3.80;;;;;;;;;;5034870;28;20492;-75
2023/10/11 14:13:48;;;;;;;18.35;3.70;;;;;;;;;;5030672;28;20817;-75
2023/10/11 14:16:21;;;;;;;23.60;3.40;;;;;;;;;;5035888;28;20415;-74
2023/10/11 14:18:53;;;;;;;20.60;3.00;;;;;;;;;;5017358;28;20463;-74
2023/10/11 14:21:24;;;;;;;20.73;2.90;;;;;;;;;;5032795;28;20465;-75
2023/10/11 14:23:51;;;;;;;20.25;3.75;;;;;;;;;;5034380;28;20720;-74
2023/10/11 14:26:18;;;;;;;22.30;3.60;;;;;;;;;;5032666;28;20545;-75
2023/10/11 14:28:47;;;;;;;21.70;3.20;;;;;;;;;;5030908;28;20414;-74
2023/10/11 14:31:16;;;;;;;18.13;2.90;;;;;;;;;;5033882;28;20481;-75
2023/10/11 14:33:43;;;;;;;20.42;2.60;;;;;;;;;;5033774;28;20419;-74
2023/10/11 14:36:11;;;;;;;20.55;3.80;;;;;;;;;;5034518;28;20411;-75
2023/10/11 14:38:38;;;;;;;21.33;3.17;;;;;;;;;;5035153;28;20410;-76
2023/10/11 14:41:09;;;;;;;23.47;3.63;;;;;;;;;;5031166;28;20423;-75
2023/10/11 14:43:36;;;;;;;20.77;3.20;;;;;;;;;;5031071;28;20411;-74
2023/10/11 14:46:06;;;;;;;22.75;3.50;;;;;;;;;;5035220;28;21235;-74
2023/10/11 14:48:34;;;;;;;22.20;3.38;;;;;;;;;;5032959;28;20423;-74
2023/10/11 14:51:04;;;;;;;19.45;3.80;;;;;;;;;;5033615;28;20930;-75
2023/10/11 14:53:33;;;;;;;24.27;2.83;;;;;;;;;;5032885;28;20407;-74
2023/10/11 14:56:06;;;;;;;19.85;3.10;;;;;;;;;;5031821;28;20485;-75
2023/10/11 14:58:33;;;;;;;21.15;2.70;;;;;;;;;;5034588;28;20410;-75
2023/10/11 15:01:04;;;;;;;19.92;3.38;;;;;;;;;;5033265;28;20414;-75
2023/10/11 15:03:30;;;;;;;18.92;3.20;;;;;;;;;;5037255;28;20413;-75
2023/10/11 15:05:57;;;;;;;22.60;2.90;;;;;;;;;;5032237;28;20473;-74
2023/10/11 15:08:23;;;;;;;21.35;3.33;;;;;;;;;;5037118;28;20429;-75
2023/10/11 15:10:52;;;;;;;18.23;3.50;;;;;;;;;;5031618;28;20705;-75
2023/10/11 15:13:21;;;;;;;23.48;2.92;;;;;;;;;;5029792;28;20408;-77
2023/10/11 15:15:48;;;;;;;21.35;3.22;;;;;;;;;;5020479;28;20414;-76
2023/10/11 15:18:14;;;;;;;18.33;3.30;;;;;;;;;;5038054;28;20501;-76
2023/10/11 15:20:41;;;;;;;20.30;2.90;;;;;;;;;;5032712;28;20457;-73
2023/10/11 15:23:08;;;;;;;21.42;4.03;;;;;;;;;;5038185;28;20411;-74
2023/10/11 15:25:34;;;;;;;18.73;3.10;;;;;;;;;;5032439;28;20450;-75
2023/10/11 15:28:05;;;;;;;22.90;3.40;;;;;;;;;;5032544;28;20462;-75
2023/10/11 15:30:32;;;;;;;22.00;3.10;;;;;;;;;;5038753;28;20411;-74
2023/10/11 15:33:00;;;;;;;21.63;3.45;;;;;;;;;;5029710;28;20431;-76
2023/10/11 15:35:27;;;;;;;24.73;3.70;;;;;;;;;;5033549;28;20502;-75
2023/10/11 15:37:55;;;;;;;22.63;3.40;;;;;;;;;;5030880;28;20426;-76
2023/10/11 15:40:21;;;;;;;20.48;3.63;;;;;;;;;;5032059;28;20445;-74
2023/10/11 15:42:48;;;;;;;23.73;3.20;;;;;;;;;;5032445;28;20417;-74
2023/10/11 15:45:16;;;;;;;21.92;3.53;;;;;;;;;;5032726;28;20414;-76
2023/10/11 15:47:43;;;;;;;21.48;3.90;;;;;;;;;;5046645;28;20419;-74